Thatcher, Arizona
Current Conditions -  °F | °C
As of 5:51 AM on Wednesday 26 Nov 2014 (Local Time) from KSAD Reporting Station
Clear Clear  
Wind Chill: 24°   Ceiling: Unl
Heat Index: 30°   Visibility: 10mi
Dew Point:   Wind: 6mph
Humidity: 32%   Direction: 130°SE
Pressure: 30.34"   Gusts: NA
Location:  32.85°N, 109.76°W
Report Text: KSAD 261251Z AUTO 13005KT 10SM CLR M01/M16 A3034 RMK AO2 SLP272 T10111161
Loading
Personal Weather Stations






























Interactive Weather Map New forecast layout! Learn more

10-Day Weather Forecast

Advertisements
Track Severe Weather on mobile